Kansas City, Missouri
Traffic Map
Current Weather Conditions
Kansas City, Missouri
Broken Clouds
Broken Clouds
57°
Feels Like: 57°
Wind Chill: 57° Ceiling: 4000
Heat Index: 57° Visibility: 10mi
Dew Point: 46° Wind: 8mph
Humidity: 67% Direction: 110° (ESE)
Pressure: 30.2in Gusts: 0mph
Raw Report DataKMKC 221354Z 11007KT 10SM BKN040 BKN048 BKN090 14/08 A3020 RMK AO2 SLP224 T01390078
Traffic Incident Summary
Active as of:
Severity:
Category:
InformationThere was an issue retrieving the traffic information for this location. Please try a different location or try again shortly.
Advertisements
Track Severe Weather on mobile